Latest Weather Observations for Rutherglen

IDV60801

Issued at 8:02 pm EDT Monday 27 February 2017 (issued every 30 minutes, with the page automatically refreshed every 10 minutes)

About weather observations | Map of weather stations | Latest weather observations for VIC | Other Formats
Station Details ID: 082039 Name: RUTHERGLEN RESEARCH Lat: -36.10 Lon: 146.51 Height: 175.0 m
Data from the previous 72 hours. | See also: Recent months at Rutherglen
Date/Time
EDT
Temp
°C
App
Temp
°C
Dew
Point
°C
Rel
Hum
%
Delta-T
°C
Wind Press
QNH
hPa
Press
MSL
hPa
Rain since
9am
mm
Dir  Spd
km/h
Gust
km/h
Spd
kts
Gust
kts
27/08:00pm 25.6 23.6 7.2 31 9.8 ENE 7 9 4 5 - - 0.0
27/07:30pm 29.4 27.6 7.3 25 12.0 NE 6 9 3 5 - - 0.0
27/07:00pm 30.5 27.7 7.0 23 12.8 E 11 17 6 9 - - 0.0
27/06:30pm 31.3 28.2 7.1 22 13.2 ENE 13 24 7 13 - - 0.0
27/06:00pm 31.7 29.0 7.4 22 13.4 NE 11 17 6 9 - - 0.0
27/05:30pm 31.5 28.8 7.2 22 13.3 NE 11 20 6 11 - - 0.0
27/05:00pm 32.6 29.4 6.7 20 14.2 E 13 22 7 12 - - 0.0
27/04:30pm 32.0 29.9 8.3 23 13.3 WNW 9 19 5 10 - - 0.0
27/04:00pm 31.8 30.0 8.1 23 13.2 SSW 7 13 4 7 - - 0.0
27/03:30pm 32.1 29.0 9.0 24 13.1 S 15 24 8 13 - - 0.0
27/03:00pm 31.5 29.6 9.1 25 12.7 E 9 17 5 9 - - 0.0
27/02:30pm 31.2 28.8 8.8 25 12.6 E 11 28 6 15 - - 0.0
27/02:00pm 30.6 28.6 10.0 28 11.8 NNE 11 19 6 10 - - 0.0
27/01:30pm 29.4 27.4 10.0 30 11.0 E 11 17 6 9 - - 0.0
27/01:00pm 30.0 28.0 10.0 29 11.4 E 11 22 6 12 - - 0.0
27/12:30pm 29.7 27.5 10.8 31 10.9 ENE 13 20 7 11 - - 0.0
27/12:00pm 27.6 25.3 10.3 34 9.8 NNE 13 22 7 12 - - 0.0
27/11:30am 28.1 25.4 10.3 33 10.1 ENE 15 28 8 15 - - 0.0
27/11:00am 26.2 23.6 9.5 35 9.3 NE 13 24 7 13 - - 0.0
27/10:30am 26.2 23.5 9.1 34 9.4 NE 13 20 7 11 - - 0.0
27/10:00am 25.7 23.1 9.5 36 9.0 ENE 13 19 7 10 - - 0.0
27/09:30am 24.7 23.5 11.6 44 7.5 ENE 9 13 5 7 - - 0.0
27/09:00am 21.9 21.9 12.5 55 5.4 ESE 4 9 2 5 - - 0.0
27/08:30am 18.5 18.9 11.3 63 4.0 CALM 0 0 0 0 - - 0.0
27/08:00am 16.2 17.0 12.4 78 2.1 CALM 0 0 0 0 - - 0.0
27/07:30am 13.3 13.6 11.0 86 1.2 CALM 0 0 0 0 - - 0.0
27/07:00am 11.7 11.6 9.6 87 1.1 CALM 0 0 0 0 - - 0.0
27/06:30am 12.5 11.6 10.6 88 1.0 NE 6 7 3 4 - - 0.0
27/06:00am 12.0 11.3 9.9 87 1.1 E 4 7 2 4 - - 0.0
27/05:30am 13.5 13.6 10.3 81 1.7 CALM 0 2 0 1 - - 0.0
27/05:00am 13.5 12.4 10.1 80 1.8 SE 6 7 3 4 - - 0.0
27/04:30am 16.5 15.2 9.9 65 3.5 ENE 7 11 4 6 - - 0.0
27/04:00am 18.0 16.5 10.4 61 4.1 NE 9 11 5 6 - - 0.0
27/03:30am 18.4 17.4 10.3 59 4.4 NE 6 13 3 7 - - 0.0
27/03:00am 19.4 17.9 10.4 56 4.9 NNE 9 15 5 8 - - 0.0
27/02:30am 18.6 17.1 10.7 60 4.3 NE 9 15 5 8 - - 0.0
27/02:00am 17.7 16.5 9.6 59 4.3 ENE 6 7 3 4 - - 0.0
27/01:30am 20.0 18.7 9.9 52 5.5 ENE 7 11 4 6 - - 0.0
27/01:00am 21.4 19.3 9.6 47 6.4 NE 11 20 6 11 - - 0.0
27/12:30am 21.6 19.4 9.5 46 6.5 NE 11 20 6 11 - - 0.0
27/12:00am 19.7 17.5 9.3 51 5.5 ENE 11 13 6 7 - - 0.0
 
Date/Time
EDT
Temp
°C
App
Temp
°C
Dew
Point
°C
Rel
Hum
%
Delta-T
°C
Wind Press
QNH
hPa
Press
MSL
hPa
Rain since
9am
mm
Dir  Spd
km/h
Gust
km/h
Spd
kts
Gust
kts
26/11:30pm 16.2 16.0 9.2 63 3.6 CALM 0 0 0 0 - - 0.0
26/11:00pm 16.6 16.4 9.1 61 3.9 CALM 0 0 0 0 - - 0.0
26/10:30pm 17.4 17.2 9.1 58 4.3 CALM 0 0 0 0 - - 0.0
26/10:00pm 18.4 18.2 9.2 55 4.9 CALM 0 0 0 0 - - 0.0
26/09:30pm 18.8 17.8 8.7 52 5.3 E 4 6 2 3 - - 0.0
26/09:00pm 20.4 18.9 8.4 46 6.3 ENE 6 6 3 3 - - 0.0
26/08:30pm 22.0 20.5 8.5 42 7.2 ENE 6 6 3 3 - - 0.0
26/08:00pm 25.8 24.0 7.9 32 9.6 E 7 7 4 4 - - 0.0
26/07:30pm 27.8 25.5 7.6 28 10.9 E 9 11 5 6 - - 0.0
26/07:00pm 29.5 27.2 7.4 25 12.0 NE 9 15 5 8 - - 0.0
26/06:30pm 30.1 28.3 7.9 25 12.2 SE 7 11 4 6 - - 0.0
26/06:00pm 30.5 28.3 7.7 24 12.5 SSE 9 17 5 9 - - 0.0
26/05:30pm 30.7 29.1 7.8 24 12.6 E 6 11 3 6 - - 0.0
26/05:00pm 31.1 28.6 8.2 24 12.7 ENE 11 17 6 9 - - 0.0
26/04:30pm 30.3 29.4 9.2 27 11.9 SSE 4 15 2 8 - - 0.0
26/04:00pm 28.9 26.5 8.6 28 11.2 ESE 11 17 6 9 - - 0.0
26/03:30pm 31.5 28.8 9.1 25 12.7 ESE 13 20 7 11 - - 0.0
26/03:00pm 31.4 29.3 9.6 26 12.4 SSE 11 26 6 14 - - 0.0
26/02:30pm 28.7 26.1 9.4 30 10.8 E 13 20 7 11 - - 0.0
26/02:00pm 30.2 26.9 9.7 28 11.6 ENE 17 26 9 14 - - 0.0
26/01:30pm 29.3 27.2 9.9 30 11.0 ENE 11 20 6 11 - - 0.0
26/01:00pm 27.9 25.1 10.1 33 10.1 NE 15 22 8 12 - - 0.0
26/12:30pm 27.5 24.8 10.2 34 9.8 ENE 15 22 8 12 - - 0.0
26/12:00pm 26.3 23.5 10.0 36 9.1 ENE 15 30 8 16 - - 0.0
26/11:30am 25.8 23.0 10.0 37 8.8 NE 15 30 8 16 - - 0.0
26/11:00am 25.8 22.4 10.4 38 8.7 ENE 19 28 10 15 - - 0.0
26/10:30am 25.4 22.2 10.1 38 8.5 ENE 17 30 9 16 - - 0.0
26/10:00am 23.5 19.7 9.9 42 7.5 E 20 28 11 15 - - 0.0
26/09:30am 23.5 20.7 11.2 46 6.9 E 17 22 9 12 - - 0.0
26/09:00am 22.1 20.0 11.2 50 6.1 E 13 17 7 9 - - 0.0
26/08:30am 20.0 19.1 12.7 63 4.1 E 9 15 5 8 - - 0.0
26/08:18am 18.2 18.2 13.7 75 2.6 ENE 6 9 3 5 - - 0.0
26/08:00am 13.2 13.9 12.3 94 0.5 CALM 0 0 0 0 - - 0.0
26/07:30am 12.3 12.7 11.4 94 0.5 CALM 0 2 0 1 - - 0.0
26/07:00am 11.4 11.5 10.1 92 0.7 CALM 0 0 0 0 - - 0.0
26/06:30am 12.1 11.2 10.5 90 0.8 ENE 6 7 3 4 - - 0.0
26/06:00am 12.0 12.2 10.6 91 0.7 CALM 0 0 0 0 - - 0.0
26/05:30am 12.5 12.7 10.7 89 0.9 CALM 0 0 0 0 - - 0.0
26/05:00am 12.8 12.9 10.2 84 1.4 CALM 0 0 0 0 - - 0.0
26/04:30am 13.7 14.1 11.2 85 1.3 CALM 0 0 0 0 - - 0.0
26/04:00am 13.7 13.8 10.3 80 1.8 CALM 0 0 0 0 - - 0.0
26/03:30am 14.2 14.4 10.4 78 2.0 CALM 0 0 0 0 - - 0.0
26/03:00am 15.8 15.6 10.6 71 2.8 NE 2 6 1 3 - - 0.0
26/02:30am 17.0 16.1 10.8 67 3.3 E 6 7 3 4 - - 0.0
26/02:00am 17.0 17.2 10.4 65 3.5 CALM 0 0 0 0 - - 0.0
26/01:30am 19.3 18.8 10.6 57 4.7 E 4 9 2 5 - - 0.0
26/01:00am 20.0 18.2 10.7 55 5.1 E 11 17 6 9 - - 0.0
26/12:30am 20.0 18.3 11.2 57 4.9 E 11 15 6 8 - - 0.0
26/12:00am 18.6 17.3 11.4 63 4.0 ESE 9 11 5 6 - - 0.0
 
Date/Time
EDT
Temp
°C
App
Temp
°C
Dew
Point
°C
Rel
Hum
%
Delta-T
°C
Wind Press
QNH
hPa
Press
MSL
hPa
Rain since
9am
mm
Dir  Spd
km/h
Gust
km/h
Spd
kts
Gust
kts
25/11:30pm 18.1 16.9 11.7 66 3.5 E 9 13 5 7 - - 0.0
25/11:00pm 17.4 16.5 11.2 67 3.4 E 7 9 4 5 - - 0.0
25/10:30pm 19.1 18.2 11.4 61 4.3 E 7 9 4 5 - - 0.0
25/10:00pm 19.7 20.1 11.2 58 4.7 CALM 0 0 0 0 - - 0.0
25/09:30pm 21.3 20.6 11.3 53 5.6 SE 6 7 3 4 - - 0.0
25/09:00pm 21.8 20.7 10.6 49 6.2 S 7 11 4 6 - - 0.0
25/08:30pm 23.9 22.4 10.6 43 7.4 SSW 9 13 5 7 - - 0.0
25/08:00pm 26.0 23.7 10.6 38 8.7 SSW 13 17 7 9 - - 0.0
25/07:30pm 27.3 24.5 10.1 34 9.7 SSW 15 20 8 11 - - 0.0
25/07:00pm 28.6 26.1 9.8 31 10.6 SSW 13 20 7 11 - - 0.0
25/06:30pm 28.8 26.9 10.5 32 10.4 SSW 11 17 6 9 - - 0.0
25/06:00pm 28.8 26.2 9.5 30 10.8 ESE 13 20 7 11 - - 0.0
25/05:30pm 29.7 28.0 9.8 29 11.3 WNW 9 15 5 8 - - 0.0
25/05:00pm 28.7 27.6 9.9 31 10.6 SE 6 9 3 5 - - 0.0
25/04:30pm 28.7 27.0 9.9 31 10.6 NE 9 15 5 8 - - 0.0
25/04:00pm 29.6 28.9 10.2 30 11.1 NNW 4 9 2 5 - - 0.0
25/03:30pm 29.0 27.9 10.6 32 10.5 SW 7 13 4 7 - - 0.0
25/03:00pm 28.8 26.1 10.5 32 10.4 E 15 22 8 12 - - 0.0
25/02:30pm 28.4 27.0 11.0 34 10.0 E 9 17 5 9 - - 0.0
25/02:00pm 28.8 27.7 11.8 35 9.9 ENE 9 15 5 8 - - 0.0
25/01:30pm 28.3 27.0 11.4 35 9.8 NNW 9 17 5 9 - - 0.0
25/01:00pm 27.7 26.3 12.1 38 9.1 NNE 11 20 6 11 - - 0.0
25/12:30pm 26.2 24.7 11.9 41 8.3 N 11 17 6 9 - - 0.0
25/12:00pm 26.5 25.6 11.4 39 8.7 E 7 15 4 8 - - 0.0
25/11:30am 26.0 24.4 11.7 41 8.2 ESE 11 22 6 12 - - 0.0
25/11:00am 25.6 24.1 10.6 39 8.4 SE 9 13 5 7 - - 0.0
25/10:30am 24.7 23.5 10.2 40 8.1 ENE 7 13 4 7 - - 0.0
25/10:00am 22.4 21.2 9.6 44 7.0 S 6 9 3 5 - - 0.0
25/09:30am 20.7 19.2 9.0 47 6.2 SW 7 11 4 6 - - 0.0
25/09:00am 19.0 18.2 9.5 54 5.1 WNW 4 7 2 4 - - 0.0
25/08:30am 16.3 16.3 9.9 66 3.4 CALM 0 0 0 0 - - 0.0
25/08:00am 13.4 13.7 10.8 84 1.4 CALM 0 0 0 0 - - 0.0
25/07:30am 10.3 10.4 10.0 98 0.2 CALM 0 0 0 0 - - 0.0
25/07:00am 9.5 9.3 9.2 98 0.1 CALM 0 0 0 0 - - 0.0
25/06:30am 9.7 9.5 9.2 97 0.2 CALM 0 0 0 0 - - 0.0
25/06:00am 9.3 8.9 8.4 94 0.4 CALM 0 0 0 0 - - 0.0
25/05:30am 9.8 9.4 8.4 91 0.7 CALM 0 0 0 0 - - 0.0
25/05:00am 9.7 8.9 8.1 90 0.8 SW 2 6 1 3 - - 0.0
25/04:30am 10.1 9.6 7.7 85 1.2 CALM 0 0 0 0 - - 0.0
25/04:00am 10.9 10.5 8.1 83 1.4 CALM 0 0 0 0 - - 0.0
25/03:30am 12.2 11.9 8.5 78 1.9 CALM 0 0 0 0 - - 0.0
25/03:00am 13.0 11.5 8.3 73 2.4 SW 6 7 3 4 - - 0.0
25/02:30am 13.1 11.0 8.2 72 2.5 W 9 9 5 5 - - 0.0
25/02:00am 13.8 11.4 8.8 72 2.5 W 11 13 6 7 - - 0.0
25/01:30am 14.6 12.2 8.8 68 3.0 W 11 11 6 6 - - 0.0
25/01:00am 15.7 13.4 8.9 64 3.5 WSW 11 15 6 8 - - 0.0
25/12:30am 14.9 12.8 8.4 65 3.3 WSW 9 13 5 7 - - 0.0
25/12:00am 17.0 15.3 8.4 57 4.4 SW 7 9 4 5 - - 0.0
 
Date/Time
EDT
Temp
°C
App
Temp
°C
Dew
Point
°C
Rel
Hum
%
Delta-T
°C
Wind Press
QNH
hPa
Press
MSL
hPa
Rain since
9am
mm
Dir  Spd
km/h
Gust
km/h
Spd
kts
Gust
kts
24/11:30pm 17.2 15.2 8.6 57 4.5 WSW 9 13 5 7 - - 0.0
24/11:00pm 16.7 14.5 7.9 56 4.5 W 9 11 5 6 - - 0.0
24/10:30pm 18.5 16.2 7.6 49 5.6 WSW 9 11 5 6 - - 0.0
24/10:00pm 20.0 16.3 8.0 46 6.3 WSW 17 22 9 12 - - 0.0
24/09:30pm 20.6 18.0 7.9 44 6.6 SW 11 17 6 9 - - 0.0
24/09:00pm 22.1 17.8 7.9 40 7.5 WSW 20 26 11 14 - - 0.0
24/08:30pm 23.5 18.9 8.0 37 8.2 WSW 22 30 12 16 - - 0.0

Other Formats:

Comma delimited format used in spreadsheet applications
http://www.bom.gov.au/fwo/IDV60801/IDV60801.95837.axf

JavaScript Object Notation format (JSON) in row-major order
http://www.bom.gov.au/fwo/IDV60801/IDV60801.95837.json